Time;durP1;ratioP1;P1;durP2;ratioP2;P2;SDS_P1;SDS_P2;PMS_P1;PMS_P2;Temp;Humidity;BMP_temperature;BMP_pressure;BME280_temperature;BME280_humidity;BME280_pressure;Samples;Min_cycle;Max_cycle;Signal;HPM_P1;HPM_P2
2022/09/04 00:00:10;;;;;;;3.95;3.08;;;20.60;99.90;;;;;;5029625;28;20240;-61
2022/09/04 00:02:51;;;;;;;5.45;3.55;;;20.50;99.90;;;;;;5019950;28;20540;-60
2022/09/04 00:05:34;;;;;;;3.80;3.47;;;20.40;99.90;;;;;;5032231;28;20187;-60
2022/09/04 00:08:14;;;;;;;4.40;3.97;;;20.40;99.90;;;;;;5016545;28;20218;-61
2022/09/04 00:10:44;;;;;;;3.92;3.33;;;20.40;99.90;;;;;;5019543;28;20207;-60
2022/09/04 00:13:21;;;;;;;4.00;3.55;;;20.30;99.90;;;;;;5015598;28;20183;-60
2022/09/04 00:15:55;;;;;;;4.25;3.28;;;20.30;99.90;;;;;;5019378;28;20555;-61
2022/09/04 00:18:32;;;;;;;3.30;2.97;;;20.30;99.90;;;;;;5022649;28;20637;-60
2022/09/04 00:21:11;;;;;;;3.22;2.90;;;20.20;99.90;;;;;;5030084;28;20182;-61
2022/09/04 00:23:58;;;;;;;7.20;4.57;;;20.20;99.90;;;;;;5038747;28;20233;-61
2022/09/04 00:26:56;;;;;;;5.55;3.85;;;20.20;99.90;;;;;;5025136;28;20253;-60
2022/09/04 00:29:47;;;;;;;4.75;4.03;;;20.20;99.90;;;;;;5024424;28;20265;-61
2022/09/04 00:32:22;;;;;;;3.80;3.50;;;20.10;99.90;;;;;;5013476;28;20605;-60
2022/09/04 00:35:24;;;;;;;4.60;3.90;;;20.10;99.90;;;;;;5014104;28;20191;-60
2022/09/04 00:38:12;;;;;;;4.60;3.78;;;20.10;99.90;;;;;;5024173;28;20191;-61
2022/09/04 00:40:57;;;;;;;5.35;4.20;;;20.10;99.90;;;;;;5029709;28;20207;-61
2022/09/04 00:43:28;;;;;;;5.22;4.05;;;20.10;99.90;;;;;;5016975;28;20190;-61
2022/09/04 00:46:15;;;;;;;4.22;3.72;;;20.10;99.90;;;;;;5031973;28;20191;-60
2022/09/04 00:49:01;;;;;;;4.95;3.60;;;20.00;99.90;;;;;;5026463;28;20598;-61
2022/09/04 00:51:51;;;;;;;4.75;3.50;;;20.00;99.90;;;;;;5030122;28;20629;-60
2022/09/04 00:54:54;;;;;;;5.22;3.92;;;20.00;99.90;;;;;;5014928;28;20199;-60
2022/09/04 00:57:35;;;;;;;4.13;3.70;;;20.00;99.90;;;;;;5029389;28;20175;-60
2022/09/04 01:00:05;;;;;;;4.70;3.58;;;20.00;99.90;;;;;;5024836;28;20201;-60
2022/09/04 01:02:40;;;;;;;4.13;3.65;;;20.00;99.90;;;;;;5017633;28;20520;-60
2022/09/04 01:05:25;;;;;;;8.32;5.05;;;19.90;99.90;;;;;;5014431;28;20190;-61
2022/09/04 01:08:06;;;;;;;4.68;3.67;;;19.90;99.90;;;;;;5022864;28;20199;-62
2022/09/04 01:10:53;;;;;;;6.65;3.72;;;19.80;99.90;;;;;;5030831;28;20207;-60
2022/09/04 01:13:54;;;;;;;7.18;3.63;;;19.80;99.90;;;;;;5026706;28;20186;-63
2022/09/04 01:16:29;;;;;;;5.55;3.63;;;19.80;99.90;;;;;;4988710;28;20228;-60
2022/09/04 01:19:09;;;;;;;4.40;4.00;;;19.80;99.90;;;;;;5014001;28;20187;-61
2022/09/04 01:21:54;;;;;;;4.68;3.60;;;19.80;99.90;;;;;;5021965;28;20178;-61
2022/09/04 01:24:54;;;;;;;4.20;3.78;;;19.70;99.90;;;;;;5017008;28;20262;-60
2022/09/04 01:27:33;;;;;;;5.68;3.75;;;19.80;99.90;;;;;;5014078;28;20270;-60
2022/09/04 01:30:14;;;;;;;6.72;4.22;;;19.90;99.90;;;;;;5014576;28;20644;-61
2022/09/04 01:33:06;;;;;;;5.05;3.85;;;19.80;99.90;;;;;;5015054;28;20221;-60
2022/09/04 01:35:49;;;;;;;5.47;3.78;;;19.80;99.90;;;;;;5014306;28;20655;-60
2022/09/04 01:38:43;;;;;;;3.78;3.28;;;19.70;99.90;;;;;;5029279;28;20198;-60
2022/09/04 01:41:18;;;;;;;5.38;3.13;;;19.70;99.90;;;;;;5013924;28;20179;-61
2022/09/04 01:43:43;;;;;;;3.78;3.30;;;19.70;99.90;;;;;;5014235;28;20277;-60
2022/09/04 01:46:12;;;;;;;5.00;3.15;;;19.70;99.90;;;;;;5039665;28;20645;-60
2022/09/04 01:48:44;;;;;;;6.72;3.20;;;19.70;99.90;;;;;;5064330;28;20178;-60
2022/09/04 01:51:50;;;;;;;4.50;4.10;;;19.70;99.90;;;;;;5013279;28;20230;-60
2022/09/04 01:54:36;;;;;;;17.50;4.60;;;19.60;99.90;;;;;;5012635;28;20206;-60
2022/09/04 01:57:14;;;;;;;5.90;3.70;;;19.60;99.90;;;;;;5026244;28;20262;-60
2022/09/04 01:59:48;;;;;;;3.60;3.05;;;19.60;99.90;;;;;;5022008;28;20190;-61
2022/09/04 02:02:40;;;;;;;3.95;3.42;;;19.60;99.90;;;;;;5028367;28;20229;-60
2022/09/04 02:05:41;;;;;;;3.85;3.45;;;19.50;99.90;;;;;;5013574;28;20185;-60
2022/09/04 02:08:40;;;;;;;5.00;3.72;;;19.50;99.90;;;;;;5013304;28;20210;-60
2022/09/04 02:11:22;;;;;;;5.00;3.75;;;19.50;99.90;;;;;;5013393;28;20198;-60
2022/09/04 02:13:48;;;;;;;4.93;3.83;;;19.50;99.90;;;;;;5023801;28;20199;-60
2022/09/04 02:16:29;;;;;;;8.05;3.85;;;19.40;99.90;;;;;;5013265;28;20191;-60
2022/09/04 02:19:19;;;;;;;5.80;3.63;;;19.40;99.90;;;;;;5016141;28;20186;-60
2022/09/04 02:22:06;;;;;;;3.72;3.38;;;19.40;99.90;;;;;;5023475;28;20193;-60
2022/09/04 02:24:44;;;;;;;4.95;3.38;;;19.40;99.90;;;;;;5019424;28;20171;-61
2022/09/04 02:27:18;;;;;;;4.90;3.90;;;19.40;99.90;;;;;;5017466;28;20179;-60
2022/09/04 02:30:03;;;;;;;5.50;3.40;;;19.40;99.90;;;;;;5021595;28;20331;-60
2022/09/04 02:32:47;;;;;;;5.15;3.03;;;19.40;99.90;;;;;;5013136;28;20548;-61
2022/09/04 02:35:20;;;;;;;4.80;3.55;;;19.40;99.90;;;;;;5013457;28;20190;-60
2022/09/04 02:37:57;;;;;;;6.68;4.47;;;19.30;99.90;;;;;;5016566;28;20179;-60
2022/09/04 02:40:36;;;;;;;4.03;3.63;;;19.40;99.90;;;;;;5030177;28;20214;-61
2022/09/04 02:43:02;;;;;;;4.32;3.50;;;19.60;99.90;;;;;;5026399;28;20186;-60
2022/09/04 02:46:04;;;;;;;6.93;5.05;;;19.70;99.90;;;;;;5027149;28;20186;-60
2022/09/04 02:48:47;;;;;;;4.05;3.72;;;19.80;99.90;;;;;;5020029;28;20716;-60
2022/09/04 02:51:32;;;;;;;5.25;3.40;;;19.70;99.90;;;;;;5013457;28;20210;-60
2022/09/04 02:54:15;;;;;;;4.55;3.92;;;19.80;99.90;;;;;;5017893;28;20187;-60
2022/09/04 02:56:45;;;;;;;6.00;3.63;;;19.80;99.90;;;;;;5030412;28;20186;-60
2022/09/04 02:59:29;;;;;;;6.55;3.40;;;19.80;99.90;;;;;;5016040;28;20183;-60
2022/09/04 03:02:03;;;;;;;3.55;3.25;;;19.70;99.90;;;;;;5033885;28;20213;-60
2022/09/04 03:04:39;;;;;;;4.75;4.32;;;19.50;99.90;;;;;;5017059;28;20180;-60
2022/09/04 03:07:38;;;;;;;5.35;3.42;;;19.40;99.90;;;;;;5024938;28;20209;-60
2022/09/04 03:10:19;;;;;;;6.05;4.72;;;19.50;99.90;;;;;;5016227;28;20533;-60
2022/09/04 03:12:53;;;;;;;5.25;3.88;;;19.60;99.90;;;;;;5025244;28;20278;-60
2022/09/04 03:15:47;;;;;;;5.03;3.88;;;19.70;99.90;;;;;;5026725;28;20207;-61
2022/09/04 03:18:23;;;;;;;6.32;3.88;;;19.60;99.90;;;;;;5016335;28;20179;-60
2022/09/04 03:21:00;;;;;;;4.05;3.75;;;19.60;99.90;;;;;;5031379;28;20324;-60
2022/09/04 03:23:44;;;;;;;6.82;4.38;;;19.40;99.90;;;;;;5026268;28;20653;-60
2022/09/04 03:26:25;;;;;;;6.82;4.22;;;19.40;99.90;;;;;;5016931;28;20172;-61
2022/09/04 03:28:54;;;;;;;4.68;4.25;;;19.30;99.90;;;;;;5048650;28;20194;-62
2022/09/04 03:31:47;;;;;;;5.72;3.90;;;19.40;99.90;;;;;;5016271;28;20237;-60
2022/09/04 03:34:32;;;;;;;4.82;4.13;;;19.40;99.90;;;;;;5031011;28;20191;-60
2022/09/04 03:37:13;;;;;;;6.25;5.13;;;19.40;99.90;;;;;;5016371;28;20261;-60
2022/09/04 03:40:00;;;;;;;6.72;5.15;;;19.40;99.90;;;;;;5028828;28;20206;-60
2022/09/04 03:42:37;;;;;;;7.38;4.65;;;19.30;99.90;;;;;;5033716;28;20181;-60
2022/09/04 03:45:34;;;;;;;10.68;7.00;;;19.20;99.90;;;;;;5024537;28;20186;-60
2022/09/04 03:48:19;;;;;;;8.77;5.45;;;19.40;99.90;;;;;;5029398;28;20265;-60
2022/09/04 03:50:47;;;;;;;8.10;5.90;;;19.50;99.90;;;;;;5016135;28;20226;-61
2022/09/04 03:53:28;;;;;;;9.05;6.53;;;19.40;99.90;;;;;;5047888;28;20184;-61
2022/09/04 03:56:11;;;;;;;7.72;5.32;;;19.20;99.90;;;;;;5024638;28;20215;-60
2022/09/04 03:59:11;;;;;;;7.68;5.60;;;19.20;99.90;;;;;;5021425;28;20217;-60
2022/09/04 04:01:58;;;;;;;7.88;5.72;;;19.10;99.90;;;;;;5019026;28;20215;-63
2022/09/04 04:04:38;;;;;;;5.97;5.38;;;19.00;99.90;;;;;;5033659;28;20198;-60
2022/09/04 04:07:23;;;;;;;7.00;5.38;;;19.00;99.90;;;;;;5017675;28;20207;-60
2022/09/04 04:09:48;;;;;;;8.23;5.70;;;19.00;99.90;;;;;;5026982;28;20265;-61
2022/09/04 04:12:32;;;;;;;6.18;5.57;;;19.00;99.90;;;;;;5015913;28;20337;-60
2022/09/04 04:15:30;;;;;;;12.93;5.47;;;19.00;99.90;;;;;;5015406;28;20657;-60
2022/09/04 04:18:42;;;;;;;8.40;6.07;;;19.00;99.90;;;;;;5016865;28;20199;-60
2022/09/04 04:21:56;;;;;;;10.55;6.75;;;19.00;99.90;;;;;;5019932;28;20643;-61
2022/09/04 04:24:37;;;;;;;10.88;6.55;;;19.00;99.90;;;;;;5017155;28;20190;-62
2022/09/04 04:27:13;;;;;;;10.40;7.10;;;18.90;99.90;;;;;;5023701;28;20251;-60
2022/09/04 04:30:03;;;;;;;11.65;6.78;;;19.00;99.90;;;;;;5033541;28;20206;-60
2022/09/04 04:32:42;;;;;;;14.00;7.75;;;19.00;99.90;;;;;;5029183;28;20568;-60
2022/09/04 04:35:17;;;;;;;15.48;8.63;;;19.20;99.90;;;;;;5027053;28;20183;-61
2022/09/04 04:37:49;;;;;;;10.98;7.88;;;19.20;99.90;;;;;;5015265;28;20197;-60
2022/09/04 04:40:22;;;;;;;15.70;8.27;;;19.20;99.90;;;;;;5014347;28;20257;-62
2022/09/04 04:42:55;;;;;;;15.70;8.75;;;19.20;99.90;;;;;;5030867;28;20179;-60
2022/09/04 04:48:14;;;;;;;9.70;7.63;;;19.60;99.90;;;;;;5025468;28;20198;-60
2022/09/04 04:50:48;;;;;;;13.13;8.82;;;19.60;99.90;;;;;;5020547;28;20207;-61
2022/09/04 04:53:31;;;;;;;13.60;8.30;;;19.60;99.90;;;;;;5018635;28;20214;-60
2022/09/04 04:56:19;;;;;;;14.60;7.75;;;19.60;99.90;;;;;;5015002;28;20309;-60
2022/09/04 04:58:56;;;;;;;10.13;6.90;;;19.40;99.90;;;;;;5016023;28;20199;-60
2022/09/04 05:01:21;;;;;;;12.75;7.90;;;19.40;99.90;;;;;;5026340;28;20186;-60
2022/09/04 05:03:53;;;;;;;11.13;8.05;;;19.20;99.90;;;;;;5022140;28;20270;-61
2022/09/04 05:06:27;;;;;;;8.35;6.90;;;19.10;99.90;;;;;;5020712;28;20184;-60
2022/09/04 05:09:15;;;;;;;10.65;6.28;;;19.10;99.90;;;;;;5024158;28;20655;-60
2022/09/04 05:11:52;;;;;;;11.25;8.32;;;19.30;99.90;;;;;;5019570;28;20199;-60
2022/09/04 05:14:33;;;;;;;8.77;6.00;;;19.20;99.90;;;;;;5021518;28;20186;-60
2022/09/04 05:17:17;;;;;;;10.27;6.93;;;19.20;99.90;;;;;;5030584;28;20178;-60
2022/09/04 05:20:11;;;;;;;9.70;7.15;;;19.40;99.90;;;;;;5030853;28;20190;-59
2022/09/04 05:22:46;;;;;;;9.15;5.97;;;19.30;99.90;;;;;;5024238;28;20218;-60
2022/09/04 05:25:23;;;;;;;9.02;7.30;;;19.30;99.90;;;;;;5019895;28;20233;-67
2022/09/04 05:28:07;;;;;;;12.30;7.28;;;19.30;99.90;;;;;;5014187;28;20222;-66
2022/09/04 05:31:10;;;;;;;8.75;6.38;;;19.40;99.90;;;;;;5014833;28;20195;-67
2022/09/04 05:34:19;;;;;;;10.35;6.57;;;19.40;99.90;;;;;;5024823;28;20190;-68
2022/09/04 05:36:55;;;;;;;9.60;6.43;;;19.50;99.90;;;;;;5006522;28;20321;-68
2022/09/04 05:39:37;;;;;;;9.45;6.95;;;19.60;99.90;;;;;;5020607;28;20224;-68
2022/09/04 05:42:15;;;;;;;11.40;7.53;;;19.40;99.90;;;;;;5031347;28;20198;-70
2022/09/04 05:45:02;;;;;;;13.30;6.93;;;19.40;99.90;;;;;;5021213;28;20594;-69
2022/09/04 05:48:05;;;;;;;11.15;6.53;;;19.40;99.90;;;;;;5025821;28;20183;-69
2022/09/04 05:50:56;;;;;;;17.48;6.72;;;19.50;99.90;;;;;;5031599;28;20262;-69
2022/09/04 05:53:52;;;;;;;12.20;6.50;;;19.60;99.90;;;;;;5017350;28;20258;-66
2022/09/04 05:56:48;;;;;;;11.25;7.80;;;19.90;99.90;;;;;;5024237;28;20640;-67
2022/09/04 05:59:32;;;;;;;9.90;6.18;;;19.80;99.90;;;;;;5013511;28;20187;-67
2022/09/04 06:02:19;;;;;;;11.23;6.55;;;19.80;99.90;;;;;;5029029;28;20202;-66
2022/09/04 06:04:54;;;;;;;33.10;6.65;;;19.80;99.90;;;;;;5023568;28;20697;-69
2022/09/04 06:07:35;;;;;;;9.82;5.50;;;19.80;99.90;;;;;;5027065;28;20190;-67
2022/09/04 06:10:23;;;;;;;10.98;5.82;;;19.80;99.90;;;;;;5013211;28;20191;-67
2022/09/04 06:13:27;;;;;;;8.57;5.50;;;19.70;99.90;;;;;;5018259;28;20262;-68
2022/09/04 06:16:08;;;;;;;7.60;5.72;;;19.80;99.90;;;;;;5013093;28;20270;-66
2022/09/04 06:18:51;;;;;;;11.07;6.40;;;19.90;99.90;;;;;;5013589;28;20644;-67
2022/09/04 06:21:17;;;;;;;9.98;5.90;;;20.00;99.90;;;;;;5013291;28;20723;-69
2022/09/04 06:24:13;;;;;;;11.02;5.40;;;20.00;99.90;;;;;;5024270;28;20269;-66
2022/09/04 06:27:17;;;;;;;7.22;5.10;;;20.10;99.90;;;;;;5036379;28;20221;-67
2022/09/04 06:30:10;;;;;;;9.55;5.63;;;20.10;99.90;;;;;;5020058;28;20187;-69
2022/09/04 06:33:05;;;;;;;8.73;5.80;;;20.10;99.90;;;;;;5011567;28;20210;-68
2022/09/04 06:36:05;;;;;;;7.10;5.28;;;20.30;99.90;;;;;;5020801;28;20652;-67
2022/09/04 06:38:31;;;;;;;8.15;5.70;;;20.40;99.90;;;;;;5015147;28;20213;-67
2022/09/04 06:41:28;;;;;;;12.85;6.28;;;20.30;99.90;;;;;;5020211;28;20194;-66
2022/09/04 06:44:08;;;;;;;11.52;6.63;;;20.30;99.90;;;;;;5024878;28;20513;-69
2022/09/04 06:46:43;;;;;;;12.48;7.22;;;20.80;99.90;;;;;;5027882;28;20182;-69
2022/09/04 06:49:29;;;;;;;12.57;9.90;;;21.00;99.90;;;;;;5022862;28;20194;-68
2022/09/04 06:52:02;;;;;;;11.23;7.53;;;21.10;99.90;;;;;;5023030;28;20904;-67
2022/09/04 06:54:36;;;;;;;11.38;7.97;;;20.90;99.90;;;;;;5029866;28;20240;-70
2022/09/04 06:57:16;;;;;;;19.38;7.32;;;20.90;99.90;;;;;;5030865;28;20590;-67
2022/09/04 06:59:58;;;;;;;12.55;6.78;;;20.90;99.90;;;;;;5036184;28;20205;-68
2022/09/04 07:03:05;;;;;;;13.07;8.15;;;20.90;99.90;;;;;;5013608;28;20187;-68
2022/09/04 07:05:34;;;;;;;13.65;8.55;;;21.10;99.90;;;;;;5034217;28;20845;-68
2022/09/04 07:08:30;;;;;;;16.30;9.80;;;21.30;99.90;;;;;;5024769;28;20557;-68
2022/09/04 07:10:58;;;;;;;13.65;7.93;;;21.40;99.90;;;;;;5012895;28;20237;-67
2022/09/04 07:13:46;;;;;;;15.82;10.43;;;21.40;99.90;;;;;;5019041;28;20687;-67
2022/09/04 07:16:18;;;;;;;12.25;8.25;;;21.50;99.90;;;;;;5030129;28;20320;-67
2022/09/04 07:18:59;;;;;;;17.58;10.57;;;21.80;99.90;;;;;;5019397;28;20632;-67
2022/09/04 07:21:41;;;;;;;14.98;9.23;;;21.80;99.90;;;;;;5016541;28;20734;-68
2022/09/04 07:24:47;;;;;;;14.02;8.50;;;22.00;99.90;;;;;;5017756;28;20248;-67
2022/09/04 07:27:37;;;;;;;12.00;7.75;;;22.10;99.90;;;;;;5012314;28;20179;-68
2022/09/04 07:30:13;;;;;;;9.40;7.05;;;23.40;99.90;;;;;;5019678;28;20179;-67
2022/09/04 07:32:53;;;;;;;9.73;5.72;;;25.50;99.90;;;;;;5027453;28;20211;-67
2022/09/04 07:35:42;;;;;;;8.40;6.75;;;27.00;99.90;;;;;;5010916;28;20981;-68
2022/09/04 07:38:27;;;;;;;9.57;5.75;;;28.30;99.90;;;;;;5008793;28;20198;-68
2022/09/04 07:41:22;;;;;;;6.55;5.10;;;29.50;99.90;;;;;;5010036;28;20244;-68
2022/09/04 07:44:13;;;;;;;8.93;5.72;;;30.60;99.90;;;;;;5015843;28;20539;-68
2022/09/04 07:46:45;;;;;;;6.22;5.05;;;31.60;99.90;;;;;;5013285;28;20183;-68
2022/09/04 07:49:56;;;;;;;6.90;4.72;;;32.00;99.90;;;;;;5043702;28;20229;-68
2022/09/04 07:52:59;;;;;;;6.25;5.07;;;32.40;99.90;;;;;;5011658;28;20733;-67
2022/09/04 07:55:46;;;;;;;6.95;4.97;;;32.60;99.90;;;;;;5015306;28;20182;-67
2022/09/04 07:58:48;;;;;;;6.53;5.03;;;32.90;99.90;;;;;;5033748;28;20658;-67
2022/09/04 08:01:39;;;;;;;5.97;4.40;;;32.80;99.90;;;;;;5015075;28;20174;-66
2022/09/04 08:04:36;;;;;;;9.27;6.07;;;32.30;99.90;;;;;;5020176;28;20190;-67
2022/09/04 08:07:27;;;;;;;9.30;5.00;;;31.50;99.90;;;;;;5015524;28;20190;-66
2022/09/04 08:10:11;;;;;;;5.95;4.20;;;31.30;99.90;;;;;;5017717;28;20191;-67
2022/09/04 08:13:22;;;;;;;6.13;4.85;;;31.30;99.90;;;;;;5015779;28;20289;-66
2022/09/04 08:16:09;;;;;;;6.63;3.70;;;31.20;99.90;;;;;;5017625;28;20269;-67
2022/09/04 08:19:05;;;;;;;3.72;3.40;;;31.00;99.90;;;;;;5014713;28;20194;-66
2022/09/04 08:21:42;;;;;;;4.25;2.65;;;31.50;99.90;;;;;;5015353;28;20190;-67
2022/09/04 08:24:48;;;;;;;2.90;2.40;;;32.00;99.90;;;;;;5014572;28;20181;-67
2022/09/04 08:27:28;;;;;;;2.90;2.60;;;33.10;99.90;;;;;;4994837;28;20217;-67
2022/09/04 08:30:05;;;;;;;3.13;2.80;;;33.70;99.90;;;;;;5015227;28;20190;-67
2022/09/04 08:32:52;;;;;;;3.85;2.53;;;34.10;99.90;;;;;;5015337;28;20214;-66
2022/09/04 08:35:32;;;;;;;2.33;2.13;;;34.00;99.90;;;;;;5025056;28;20190;-66
2022/09/04 08:38:31;;;;;;;3.22;2.60;;;33.70;99.90;;;;;;5022196;28;20183;-66
2022/09/04 08:41:09;;;;;;;2.88;1.98;;;33.60;99.90;;;;;;5022822;28;20248;-66
2022/09/04 08:43:52;;;;;;;5.15;2.35;;;33.70;99.90;;;;;;5014139;28;20500;-67
2022/09/04 08:46:47;;;;;;;3.47;2.50;;;33.70;99.90;;;;;;5013139;28;20182;-66
2022/09/04 08:49:35;;;;;;;2.58;2.38;;;33.60;99.90;;;;;;5014054;28;20178;-66
2022/09/04 08:52:39;;;;;;;9.18;2.35;;;33.70;99.90;;;;;;5013896;28;20206;-67
2022/09/04 08:55:25;;;;;;;3.03;2.67;;;32.50;99.90;;;;;;5015655;28;20274;-66
2022/09/04 08:58:00;;;;;;;2.13;1.92;;;31.40;99.90;;;;;;5015968;28;20201;-65
2022/09/04 09:01:07;;;;;;;2.75;2.08;;;30.50;99.90;;;;;;5016452;28;20182;-65
2022/09/04 09:03:54;;;;;;;4.03;2.22;;;29.60;99.90;;;;;;5014255;28;20201;-65
2022/09/04 09:06:35;;;;;;;3.15;2.85;;;29.30;99.90;;;;;;5014578;28;20178;-65
2022/09/04 09:09:38;;;;;;;4.57;2.28;;;28.90;99.90;;;;;;5014611;28;20201;-65
2022/09/04 09:12:27;;;;;;;3.30;2.83;;;28.70;99.90;;;;;;5014002;28;20284;-65
2022/09/04 09:14:58;;;;;;;4.82;2.67;;;28.20;99.90;;;;;;5022629;28;20189;-65
2022/09/04 09:18:16;;;;;;;2.63;2.38;;;27.70;99.90;;;;;;5013275;28;20189;-65
2022/09/04 09:21:06;;;;;;;2.03;1.83;;;27.40;99.90;;;;;;4999456;28;20241;-65
2022/09/04 09:23:43;;;;;;;2.88;1.80;;;27.50;99.90;;;;;;5022165;28;20178;-65
2022/09/04 09:26:29;;;;;;;2.45;1.95;;;27.60;99.90;;;;;;5014615;28;20202;-65
2022/09/04 09:29:17;;;;;;;2.25;2.03;;;27.70;99.90;;;;;;5046443;28;20194;-64
2022/09/04 09:32:00;;;;;;;20.42;3.00;;;27.50;99.90;;;;;;5021114;28;20571;-64
2022/09/04 09:34:44;;;;;;;2.20;2.00;;;27.30;99.90;;;;;;5015457;28;20187;-65
2022/09/04 09:37:28;;;;;;;6.05;2.53;;;27.30;99.90;;;;;;5014374;28;20651;-65
2022/09/04 09:40:19;;;;;;;2.38;1.95;;;27.30;99.90;;;;;;5013796;28;20602;-65
2022/09/04 09:43:03;;;;;;;8.55;3.10;;;27.50;99.90;;;;;;5015505;28;20191;-65
2022/09/04 09:45:48;;;;;;;1.90;1.80;;;27.80;99.90;;;;;;5020747;28;20186;-65
2022/09/04 09:48:32;;;;;;;1.55;1.40;;;27.80;99.90;;;;;;5029986;28;20182;-65
2022/09/04 09:51:22;;;;;;;1.60;1.45;;;27.90;99.90;;;;;;5016799;28;20221;-65
2022/09/04 09:54:06;;;;;;;2.40;2.15;;;27.90;99.90;;;;;;5017615;28;20237;-65
2022/09/04 09:56:43;;;;;;;1.45;1.25;;;28.00;99.90;;;;;;5013199;28;20179;-66
2022/09/04 09:59:23;;;;;;;3.95;2.13;;;27.90;99.90;;;;;;5018320;28;20220;-65
2022/09/04 10:02:07;;;;;;;1.10;1.10;;;27.80;99.90;;;;;;5014344;28;20559;-66
2022/09/04 10:05:15;;;;;;;4.28;3.40;;;27.60;99.90;;;;;;5012470;28;20187;-65
2022/09/04 10:07:43;;;;;;;4.45;2.00;;;27.40;99.90;;;;;;5030357;28;20598;-64
2022/09/04 10:10:36;;;;;;;3.42;1.90;;;27.40;99.90;;;;;;5024361;28;20750;-65
2022/09/04 10:13:19;;;;;;;3.55;1.70;;;27.30;99.90;;;;;;5018297;28;20228;-66
2022/09/04 10:16:19;;;;;;;8.00;4.15;;;27.30;99.90;;;;;;5014351;28;20233;-64
2022/09/04 10:19:15;;;;;;;1.92;1.23;;;27.20;99.90;;;;;;5018257;28;20321;-63
2022/09/04 10:22:18;;;;;;;1.48;1.38;;;27.30;99.90;;;;;;5025528;28;20190;-62
2022/09/04 10:25:04;;;;;;;2.25;2.15;;;27.50;99.90;;;;;;5013244;28;20178;-63
2022/09/04 10:28:00;;;;;;;2.05;1.30;;;27.50;99.90;;;;;;5012898;28;20240;-63
2022/09/04 10:31:11;;;;;;;1.58;1.48;;;27.50;99.90;;;;;;5018238;28;20186;-63
2022/09/04 10:33:47;;;;;;;1.30;1.20;;;27.60;99.90;;;;;;5012904;28;20199;-67
2022/09/04 10:36:42;;;;;;;7.97;1.35;;;27.80;99.90;;;;;;5016795;28;20235;-68
2022/09/04 10:42:08;;;;;;;1.52;1.40;;;27.80;99.90;;;;;;5020044;28;20256;-69
2022/09/04 10:45:19;;;;;;;2.67;1.42;;;27.80;99.90;;;;;;5022091;28;20178;-72
2022/09/04 10:48:12;;;;;;;1.85;1.50;;;27.80;99.90;;;;;;5024443;28;20205;-69
2022/09/04 10:51:07;;;;;;;1.30;1.20;;;27.70;99.90;;;;;;5018219;28;20208;-72
2022/09/04 10:53:53;;;;;;;1.63;1.52;;;27.80;99.90;;;;;;5015650;28;20273;-68
2022/09/04 10:56:41;;;;;;;1.33;1.23;;;27.80;99.90;;;;;;5012934;28;20187;-68
2022/09/04 10:59:30;;;;;;;1.45;1.20;;;27.90;99.90;;;;;;5018610;28;20256;-68
2022/09/04 11:02:22;;;;;;;1.65;1.45;;;27.80;99.90;;;;;;5018382;28;20228;-68
2022/09/04 11:05:05;;;;;;;1.48;1.10;;;28.00;99.90;;;;;;5019593;28;20252;-68
2022/09/04 11:07:50;;;;;;;1.27;1.20;;;27.90;99.90;;;;;;5014965;28;20201;-68
2022/09/04 11:10:36;;;;;;;1.38;1.27;;;27.90;99.90;;;;;;5013704;28;20197;-68
2022/09/04 11:13:39;;;;;;;2.92;1.38;;;27.80;99.90;;;;;;5032070;28;20601;-69
2022/09/04 11:16:04;;;;;;;4.82;1.55;;;27.90;99.90;;;;;;5031697;28;20186;-68
2022/09/04 11:18:50;;;;;;;1.83;1.33;;;27.80;99.90;;;;;;5028062;28;20690;-67
2022/09/04 11:21:46;;;;;;;1.63;1.20;;;27.90;99.90;;;;;;5016432;28;20182;-67
2022/09/04 11:24:52;;;;;;;4.15;1.65;;;27.80;99.90;;;;;;5019505;28;20182;-67
2022/09/04 11:27:25;;;;;;;6.43;1.73;;;27.70;99.90;;;;;;5018350;28;20198;-68
2022/09/04 11:30:10;;;;;;;1.40;1.10;;;27.60;99.90;;;;;;5018850;28;20687;-66
2022/09/04 11:32:50;;;;;;;1.08;0.98;;;27.60;99.90;;;;;;5020331;28;20260;-69
2022/09/04 11:35:41;;;;;;;3.38;1.27;;;27.70;99.90;;;;;;5022624;28;20182;-67
2022/09/04 11:38:29;;;;;;;1.33;1.10;;;27.80;99.90;;;;;;5016702;28;20190;-62
2022/09/04 11:41:42;;;;;;;2.10;2.00;;;27.90;99.90;;;;;;5021740;28;20197;-62
2022/09/04 11:44:35;;;;;;;1.27;1.17;;;27.90;99.90;;;;;;5032598;28;20204;-63
2022/09/04 11:47:07;;;;;;;2.45;1.10;;;28.00;99.90;;;;;;5022035;28;20202;-62
2022/09/04 11:50:06;;;;;;;2.42;1.00;;;28.00;99.90;;;;;;5016146;28;20190;-63
2022/09/04 11:52:50;;;;;;;0.90;0.90;;;28.00;99.90;;;;;;5016299;28;20202;-62
2022/09/04 11:55:32;;;;;;;3.85;1.13;;;27.90;99.90;;;;;;5022372;28;20684;-64
2022/09/04 11:58:27;;;;;;;3.65;1.48;;;28.00;99.90;;;;;;5020797;28;20197;-62
2022/09/04 12:01:08;;;;;;;2.67;1.35;;;28.00;99.90;;;;;;5047744;28;20189;-62
2022/09/04 12:03:57;;;;;;;2.63;2.42;;;27.90;99.90;;;;;;5025423;28;20317;-61
2022/09/04 12:06:53;;;;;;;2.72;1.20;;;28.00;99.90;;;;;;5015549;28;20179;-64
2022/09/04 12:09:34;;;;;;;1.33;1.15;;;28.20;99.90;;;;;;5030665;28;20290;-62
2022/09/04 12:12:21;;;;;;;1.88;1.25;;;28.20;99.90;;;;;;5016310;28;20209;-63
2022/09/04 12:15:05;;;;;;;3.42;3.13;;;28.00;99.90;;;;;;5014521;28;20276;-62
2022/09/04 12:17:55;;;;;;;1.08;1.02;;;28.10;99.90;;;;;;5014953;28;20194;-63
2022/09/04 12:20:54;;;;;;;4.60;1.45;;;28.00;99.90;;;;;;5019483;28;20531;-62
2022/09/04 12:23:26;;;;;;;2.00;1.10;;;28.20;99.90;;;;;;5015571;28;20545;-63
2022/09/04 12:26:26;;;;;;;2.42;1.20;;;28.10;99.90;;;;;;5024303;28;20282;-63
2022/09/04 12:29:23;;;;;;;1.42;1.02;;;28.10;99.90;;;;;;5014911;28;20233;-63
2022/09/04 12:31:55;;;;;;;1.00;1.00;;;28.10;99.90;;;;;;5026208;28;20226;-64
2022/09/04 12:34:48;;;;;;;1.63;1.30;;;28.30;99.90;;;;;;5032102;28;20178;-62
2022/09/04 12:37:42;;;;;;;1.40;1.05;;;28.50;99.90;;;;;;5019304;28;20178;-62
2022/09/04 12:40:27;;;;;;;1.45;1.30;;;28.50;99.90;;;;;;5024220;28;20221;-63
2022/09/04 12:42:58;;;;;;;1.38;1.27;;;28.40;99.90;;;;;;5028571;28;20213;-63
2022/09/04 12:45:46;;;;;;;2.03;1.20;;;28.60;99.90;;;;;;5027155;28;20194;-63
2022/09/04 12:48:35;;;;;;;3.53;1.75;;;28.70;99.90;;;;;;5019301;28;20178;-63
2022/09/04 12:51:00;;;;;;;5.75;1.42;;;28.70;99.90;;;;;;5042728;28;20212;-63
2022/09/04 12:53:43;;;;;;;2.80;1.38;;;28.40;99.90;;;;;;5028913;28;20643;-62
2022/09/04 12:56:30;;;;;;;3.85;1.98;;;28.30;99.90;;;;;;5017192;28;20667;-61
2022/09/04 12:59:08;;;;;;;1.52;1.42;;;28.30;99.90;;;;;;5051598;28;20204;-65
2022/09/04 13:02:10;;;;;;;1.02;1.00;;;28.60;99.90;;;;;;5028170;28;20227;-62
2022/09/04 13:04:58;;;;;;;1.08;1.08;;;28.50;99.90;;;;;;5061091;28;20192;-62
2022/09/04 13:08:05;;;;;;;3.03;2.15;;;28.50;99.90;;;;;;5027163;28;20244;-61
2022/09/04 13:10:34;;;;;;;5.93;1.20;;;28.60;99.90;;;;;;5023643;28;20193;-62
2022/09/04 13:13:23;;;;;;;1.02;1.00;;;28.70;99.90;;;;;;5022902;28;20198;-62
2022/09/04 13:16:02;;;;;;;2.58;2.05;;;28.80;99.90;;;;;;5020756;28;20225;-62
2022/09/04 13:18:33;;;;;;;1.50;1.38;;;28.80;99.90;;;;;;5013510;28;20179;-61
2022/09/04 13:21:24;;;;;;;3.13;1.40;;;28.90;99.90;;;;;;5021144;28;20169;-63
2022/09/04 13:24:25;;;;;;;3.45;1.45;;;28.90;99.90;;;;;;5014586;28;20175;-64
2022/09/04 13:27:06;;;;;;;4.60;1.40;;;29.00;99.90;;;;;;5018244;28;20190;-65
2022/09/04 13:30:04;;;;;;;1.13;1.10;;;29.10;99.90;;;;;;5014169;28;20267;-65
2022/09/04 13:32:54;;;;;;;1.38;1.27;;;29.20;99.90;;;;;;5018484;28;20577;-64
2022/09/04 13:35:31;;;;;;;1.27;1.17;;;29.20;99.90;;;;;;5018903;28;20265;-64
2022/09/04 13:38:18;;;;;;;10.88;2.35;;;29.10;99.90;;;;;;5013412;28;20184;-64
2022/09/04 13:41:09;;;;;;;4.60;1.67;;;29.10;99.90;;;;;;5020714;28;20608;-64
2022/09/04 13:43:54;;;;;;;2.42;1.40;;;28.90;99.90;;;;;;5032765;28;20177;-64
2022/09/04 13:46:28;;;;;;;1.60;1.45;;;29.00;99.90;;;;;;5029393;28;20277;-64
2022/09/04 13:48:58;;;;;;;1.65;1.55;;;29.00;99.90;;;;;;5028442;28;20592;-64
2022/09/04 13:51:34;;;;;;;2.15;1.52;;;29.20;99.90;;;;;;5016242;28;20206;-64
2022/09/04 13:54:18;;;;;;;3.13;1.35;;;29.10;99.90;;;;;;5014120;28;20691;-65
2022/09/04 13:56:57;;;;;;;4.88;1.42;;;29.10;99.90;;;;;;5013766;28;20186;-62
2022/09/04 13:59:23;;;;;;;1.50;1.40;;;29.10;99.90;;;;;;5013378;28;20182;-61
2022/09/04 14:01:55;;;;;;;3.33;1.77;;;29.10;99.90;;;;;;5029606;28;20190;-61
2022/09/04 14:04:28;;;;;;;3.40;1.67;;;29.00;99.90;;;;;;5022530;28;20216;-62
2022/09/04 14:07:05;;;;;;;1.45;1.40;;;29.00;99.90;;;;;;5028790;28;20647;-61
2022/09/04 14:09:37;;;;;;;3.10;1.30;;;29.20;99.90;;;;;;5021949;28;20193;-71
2022/09/04 14:12:28;;;;;;;1.25;1.17;;;29.10;99.90;;;;;;5025829;28;20197;-68
2022/09/04 14:15:32;;;;;;;1.65;1.55;;;29.00;99.90;;;;;;5019817;28;20187;-62
2022/09/04 14:18:39;;;;;;;1.52;1.40;;;29.00;99.90;;;;;;5018909;28;20639;-61
2022/09/04 14:21:13;;;;;;;2.45;1.63;;;29.10;99.90;;;;;;5013088;28;20537;-58
2022/09/04 14:23:51;;;;;;;3.60;2.83;;;29.10;99.90;;;;;;5023947;28;20185;-56